createdAt,value
2023-05-13T00:00:28.655Z,14.70
2023-05-13T00:01:29.015Z,14.72
2023-05-13T00:02:29.215Z,14.70
2023-05-13T00:03:29.607Z,14.70
2023-05-13T00:04:29.809Z,14.70
2023-05-13T00:05:30.118Z,14.69
2023-05-13T00:06:30.600Z,14.69
2023-05-13T00:07:30.663Z,14.70
2023-05-13T00:08:30.984Z,14.68
2023-05-13T00:09:31.284Z,14.69
2023-05-13T00:10:31.601Z,14.70
2023-05-13T00:11:31.910Z,14.69
2023-05-13T00:12:32.260Z,14.69
2023-05-13T00:13:32.566Z,14.72
2023-05-13T00:14:32.880Z,14.72
2023-05-13T00:15:33.187Z,14.70
2023-05-13T00:16:33.549Z,14.72
2023-05-13T00:17:33.834Z,14.72
2023-05-13T00:18:34.174Z,14.72
2023-05-13T00:19:34.476Z,14.72
2023-05-13T00:20:34.813Z,14.70
2023-05-13T00:21:35.122Z,14.72
2023-05-13T00:22:35.439Z,14.72
2023-05-13T00:23:35.759Z,14.72
2023-05-13T00:24:36.083Z,14.72
2023-05-13T00:25:36.396Z,14.73
2023-05-13T00:26:36.718Z,14.73
2023-05-13T00:27:37.088Z,14.73
2023-05-13T00:28:37.287Z,14.75
2023-05-13T00:29:37.614Z,14.73
2023-05-13T00:30:37.908Z,14.73
2023-05-13T00:31:38.251Z,14.73
2023-05-13T00:32:38.685Z,14.72
2023-05-13T00:33:38.848Z,14.73
2023-05-13T00:34:39.221Z,14.73
2023-05-13T00:35:39.505Z,14.72
2023-05-13T00:36:39.838Z,14.73
2023-05-13T00:37:40.161Z,14.70
2023-05-13T00:38:40.461Z,14.69
2023-05-13T00:39:40.778Z,14.65
2023-05-13T00:40:41.107Z,14.64
2023-05-13T00:41:41.462Z,14.65
2023-05-13T00:42:41.747Z,14.68
2023-05-13T00:43:42.090Z,14.64
2023-05-13T00:44:42.408Z,14.61
2023-05-13T00:45:42.844Z,14.62
2023-05-13T00:46:43.025Z,14.62
2023-05-13T00:47:43.365Z,14.61
2023-05-13T00:48:43.660Z,14.60
2023-05-13T00:49:44.011Z,14.57
2023-05-13T00:50:44.321Z,14.57
2023-05-13T00:51:44.643Z,14.55
2023-05-13T00:52:44.931Z,14.57
2023-05-13T00:53:45.249Z,14.55
2023-05-13T00:54:45.578Z,14.55
2023-05-13T00:55:45.933Z,14.54
2023-05-13T00:56:46.223Z,14.54
2023-05-13T00:57:46.542Z,14.51
2023-05-13T00:58:46.854Z,14.47
2023-05-13T00:59:47.192Z,14.46
2023-05-13T01:00:47.526Z,14.46
2023-05-13T01:01:47.813Z,14.46
2023-05-13T01:02:48.175Z,14.47
2023-05-13T01:03:48.459Z,14.43
2023-05-13T01:04:48.857Z,14.43
2023-05-13T01:05:49.054Z,14.39
2023-05-13T01:06:49.351Z,14.40
2023-05-13T01:07:49.643Z,14.39
2023-05-13T01:08:49.977Z,14.39
2023-05-13T01:09:50.317Z,14.35
2023-05-13T01:10:50.618Z,14.33
2023-05-13T01:11:50.954Z,14.32
2023-05-13T01:12:51.222Z,14.29
2023-05-13T01:13:51.604Z,14.28
2023-05-13T01:14:51.916Z,14.27
2023-05-13T01:15:52.251Z,14.27
2023-05-13T01:16:52.632Z,14.22
2023-05-13T01:17:52.909Z,14.22
2023-05-13T01:18:53.230Z,14.21
2023-05-13T01:19:53.488Z,14.20
2023-05-13T01:20:53.785Z,14.17
2023-05-13T01:21:54.140Z,14.14
2023-05-13T01:22:54.443Z,14.12
2023-05-13T01:23:54.811Z,14.10
2023-05-13T01:24:55.081Z,14.04
2023-05-13T01:25:55.440Z,14.03
2023-05-13T01:26:55.740Z,14.02
2023-05-13T01:27:56.048Z,13.99
2023-05-13T01:28:56.356Z,13.97
2023-05-13T01:29:56.658Z,13.97
2023-05-13T01:30:57.033Z,13.91
2023-05-13T01:31:57.270Z,13.91
2023-05-13T01:32:57.501Z,13.88
2023-05-13T01:33:57.819Z,13.85
2023-05-13T01:34:58.103Z,13.84
2023-05-13T01:35:58.414Z,13.82
2023-05-13T01:36:58.739Z,13.82
2023-05-13T01:37:59.048Z,13.79
2023-05-13T01:38:59.348Z,13.78
2023-05-13T01:39:59.686Z,13.75
2023-05-13T01:41:00.015Z,13.69
2023-05-13T01:42:00.347Z,13.66
2023-05-13T01:43:00.667Z,13.64
2023-05-13T01:44:00.902Z,13.62
2023-05-13T01:45:01.180Z,13.63
2023-05-13T01:46:01.534Z,13.63
2023-05-13T01:47:01.777Z,13.63
2023-05-13T01:48:02.138Z,13.60
2023-05-13T01:49:02.372Z,13.59
2023-05-13T01:50:02.714Z,13.59
2023-05-13T01:51:03.089Z,13.55
2023-05-13T01:52:03.256Z,13.54
2023-05-13T01:53:03.574Z,13.52
2023-05-13T01:54:03.946Z,13.52
2023-05-13T01:55:04.138Z,13.49
2023-05-13T01:56:04.451Z,13.49
2023-05-13T01:57:04.815Z,13.49
2023-05-13T01:58:05.124Z,13.45
2023-05-13T01:59:05.441Z,13.45
2023-05-13T02:00:05.771Z,13.42
2023-05-13T02:01:06.107Z,13.42
2023-05-13T02:02:06.470Z,13.42
2023-05-13T02:03:06.766Z,13.42
2023-05-13T02:04:07.029Z,13.39
2023-05-13T02:05:07.325Z,13.39
2023-05-13T02:06:07.652Z,13.38
2023-05-13T02:07:07.949Z,13.36
2023-05-13T02:08:08.267Z,13.36
2023-05-13T02:09:08.617Z,13.32
2023-05-13T02:10:08.872Z,13.30
2023-05-13T02:11:09.062Z,13.29
2023-05-13T02:12:09.366Z,13.26
2023-05-13T02:13:09.714Z,13.23
2023-05-13T02:14:10.039Z,13.22
2023-05-13T02:15:10.335Z,13.19
2023-05-13T02:16:10.676Z,13.15
2023-05-13T02:17:10.909Z,13.14
2023-05-13T02:18:11.219Z,13.11
2023-05-13T02:19:11.626Z,13.08
2023-05-13T02:20:11.869Z,13.08
2023-05-13T02:21:12.184Z,13.05
2023-05-13T02:22:12.502Z,13.05
2023-05-13T02:23:12.829Z,13.05
2023-05-13T02:24:13.126Z,13.04
2023-05-13T02:25:13.450Z,13.03
2023-05-13T02:26:13.768Z,13.00
2023-05-13T02:27:14.121Z,13.00
2023-05-13T02:28:14.472Z,12.96
2023-05-13T02:29:14.756Z,12.93
2023-05-13T02:30:15.076Z,12.90
2023-05-13T02:31:15.393Z,12.89
2023-05-13T02:32:15.756Z,12.86
2023-05-13T02:33:16.088Z,12.87
2023-05-13T02:34:16.284Z,12.85
2023-05-13T02:35:16.600Z,12.83
2023-05-13T02:36:16.896Z,12.79
2023-05-13T02:37:17.293Z,12.79
2023-05-13T02:38:17.572Z,12.79
2023-05-13T02:39:17.915Z,12.82
2023-05-13T02:40:18.246Z,12.78
2023-05-13T02:41:18.568Z,12.78
2023-05-13T02:42:18.875Z,12.77
2023-05-13T02:43:19.200Z,12.74
2023-05-13T02:44:19.528Z,12.72
2023-05-13T02:45:19.833Z,12.71
2023-05-13T02:46:20.233Z,12.71
2023-05-13T02:47:20.543Z,12.70
2023-05-13T02:48:20.835Z,12.70
2023-05-13T02:49:21.156Z,12.70
2023-05-13T02:50:21.641Z,12.68
2023-05-13T02:51:21.806Z,12.67
2023-05-13T02:52:21.992Z,12.67
2023-05-13T02:53:22.324Z,12.65
2023-05-13T02:54:22.668Z,12.64
2023-05-13T02:55:23.068Z,12.62
2023-05-13T02:56:23.253Z,12.59
2023-05-13T02:57:23.576Z,12.60
2023-05-13T02:58:23.899Z,12.64
2023-05-13T02:59:24.216Z,12.60
2023-05-13T03:00:24.593Z,12.59
2023-05-13T03:01:24.851Z,12.56
2023-05-13T03:02:25.140Z,12.56
2023-05-13T03:03:25.612Z,12.57
2023-05-13T03:04:25.590Z,12.54
2023-05-13T03:05:27.235Z,12.52
2023-05-13T03:06:26.327Z,12.53
2023-05-13T03:07:26.540Z,12.53
2023-05-13T03:08:26.751Z,12.50
2023-05-13T03:09:27.130Z,12.49
2023-05-13T03:10:27.361Z,12.49
2023-05-13T03:11:27.747Z,12.46
2023-05-13T03:12:27.934Z,12.46
2023-05-13T03:13:28.194Z,12.45
2023-05-13T03:14:28.561Z,12.42
2023-05-13T03:15:28.821Z,12.39
2023-05-13T03:16:29.111Z,12.39
2023-05-13T03:17:29.386Z,12.38
2023-05-13T03:18:29.710Z,12.39
2023-05-13T03:19:30.085Z,12.39
2023-05-13T03:20:30.293Z,12.39
2023-05-13T03:21:30.529Z,12.39
2023-05-13T03:22:30.809Z,12.39
2023-05-13T03:23:31.025Z,12.41
2023-05-13T03:24:31.238Z,12.41
2023-05-13T03:25:31.592Z,12.39
2023-05-13T03:26:31.794Z,12.41
2023-05-13T03:27:32.173Z,12.41
2023-05-13T03:28:32.385Z,12.41
2023-05-13T03:29:32.760Z,12.41
2023-05-13T03:30:32.966Z,12.39
2023-05-13T03:31:33.342Z,12.39
2023-05-13T03:32:33.603Z,12.38
2023-05-13T03:33:33.814Z,12.39
2023-05-13T03:34:34.054Z,12.35
2023-05-13T03:35:34.283Z,12.38
2023-05-13T03:36:34.503Z,12.38
2023-05-13T03:37:34.869Z,12.39
2023-05-13T03:38:35.085Z,12.39
2023-05-13T03:39:35.425Z,12.41
2023-05-13T03:40:35.748Z,12.42
2023-05-13T03:41:36.114Z,12.45
2023-05-13T03:42:36.345Z,12.47
2023-05-13T03:43:36.693Z,12.53
2023-05-13T03:44:36.908Z,12.59
2023-05-13T03:45:37.273Z,12.60
2023-05-13T03:46:37.532Z,12.62
2023-05-13T03:47:37.793Z,12.62
2023-05-13T03:48:37.987Z,12.70
2023-05-13T03:49:38.229Z,12.71
2023-05-13T03:50:38.469Z,12.72
2023-05-13T03:51:38.826Z,12.75
2023-05-13T03:52:39.093Z,12.78
2023-05-13T03:53:39.323Z,12.79
2023-05-13T03:54:39.608Z,12.83
2023-05-13T03:55:39.834Z,12.87
2023-05-13T03:56:40.083Z,12.90
2023-05-13T03:57:40.342Z,12.93
2023-05-13T03:58:40.573Z,12.97
2023-05-13T03:59:40.841Z,13.04
2023-05-13T04:00:41.053Z,13.08
2023-05-13T04:01:41.507Z,13.11
2023-05-13T04:02:41.879Z,13.12
2023-05-13T04:03:41.903Z,13.15
2023-05-13T04:04:42.301Z,13.17
2023-05-13T04:05:42.513Z,13.20
2023-05-13T04:06:42.752Z,13.22
2023-05-13T04:07:43.076Z,13.25
2023-05-13T04:08:43.294Z,13.25
2023-05-13T04:09:43.519Z,13.26
2023-05-13T04:10:43.766Z,13.29
2023-05-13T04:11:44.000Z,13.29
2023-05-13T04:12:44.369Z,13.33
2023-05-13T04:13:44.607Z,13.33
2023-05-13T04:14:44.840Z,13.39
2023-05-13T04:15:45.100Z,13.42
2023-05-13T04:16:45.392Z,13.46
2023-05-13T04:17:45.658Z,13.48
2023-05-13T04:18:45.854Z,13.51
2023-05-13T04:19:46.096Z,13.59
2023-05-13T04:22:02.875Z,13.69
2023-05-13T04:23:06.840Z,13.73
2023-05-13T04:24:03.551Z,13.75
2023-05-13T04:25:04.863Z,13.79
2023-05-13T04:26:04.087Z,13.79
2023-05-13T04:27:04.362Z,13.82
2023-05-13T04:28:04.575Z,13.87
2023-05-13T04:29:04.910Z,13.92
2023-05-13T04:30:05.183Z,14.00
2023-05-13T04:31:05.462Z,14.06
2023-05-13T04:32:05.820Z,14.09
2023-05-13T04:33:06.666Z,14.12
2023-05-13T04:34:06.865Z,14.15
2023-05-13T04:35:06.546Z,14.20
2023-05-13T04:36:06.779Z,14.20
2023-05-13T04:37:07.064Z,14.21
2023-05-13T04:38:07.409Z,14.22
2023-05-13T04:39:07.544Z,14.24
2023-05-13T04:40:08.313Z,14.22
2023-05-13T04:41:08.341Z,14.25
2023-05-13T04:42:08.753Z,14.27
2023-05-13T04:43:09.006Z,14.22
2023-05-13T04:44:09.035Z,14.20
2023-05-13T04:45:09.574Z,14.15
2023-05-13T04:46:11.077Z,14.10
2023-05-13T04:47:10.691Z,14.07
2023-05-13T04:48:11.233Z,14.09
2023-05-13T04:49:11.661Z,14.07
2023-05-13T04:50:10.866Z,14.03
2023-05-13T04:51:12.347Z,14.03
2023-05-13T04:52:11.602Z,14.03
2023-05-13T04:53:11.735Z,14.02
2023-05-13T04:54:11.947Z,14.02
2023-05-13T04:55:12.301Z,14.04
2023-05-13T04:56:12.541Z,14.32
2023-05-13T04:57:12.801Z,14.88
2023-05-13T04:58:13.144Z,15.57
2023-05-13T04:59:13.385Z,16.17
2023-05-13T05:00:13.659Z,16.78
2023-05-13T05:01:14.020Z,17.23
2023-05-13T05:02:14.299Z,17.55
2023-05-13T05:03:14.593Z,17.93
2023-05-13T05:04:15.050Z,18.30
2023-05-13T05:05:17.495Z,18.48
2023-05-13T05:06:15.409Z,18.60
2023-05-13T05:07:15.704Z,18.87
2023-05-13T05:08:15.983Z,18.99
2023-05-13T05:09:16.674Z,19.08
2023-05-13T05:10:16.509Z,19.25
2023-05-13T05:11:16.949Z,19.36
2023-05-13T05:12:17.019Z,19.47
2023-05-13T05:13:17.309Z,19.69
2023-05-13T05:14:17.566Z,19.95
2023-05-13T05:15:18.063Z,20.02
2023-05-13T05:16:18.378Z,20.10
2023-05-13T05:17:18.591Z,20.06
2023-05-13T05:18:18.767Z,19.95
2023-05-13T05:19:19.127Z,19.86
2023-05-13T05:20:19.575Z,19.86
2023-05-13T05:21:20.108Z,19.86
2023-05-13T05:22:20.082Z,20.03
2023-05-13T05:23:20.236Z,20.23
2023-05-13T05:24:20.546Z,20.42
2023-05-13T05:25:20.901Z,20.57
2023-05-13T05:26:21.064Z,20.52
2023-05-13T05:27:21.320Z,20.54
2023-05-13T05:28:21.695Z,20.57
2023-05-13T05:29:21.880Z,20.69
2023-05-13T05:30:22.429Z,20.70
2023-05-13T05:31:22.658Z,20.84
2023-05-13T05:32:22.810Z,21.17
2023-05-13T05:33:23.263Z,21.38
2023-05-13T05:34:23.428Z,21.54
2023-05-13T05:35:23.820Z,21.56
2023-05-13T05:36:24.021Z,21.47
2023-05-13T05:37:24.220Z,21.42
2023-05-13T05:38:24.737Z,21.47
2023-05-13T05:39:24.950Z,21.49
2023-05-13T05:40:25.392Z,21.69
2023-05-13T05:41:25.398Z,21.84
2023-05-13T05:42:25.621Z,21.96
2023-05-13T05:43:26.040Z,22.03
2023-05-13T05:44:26.179Z,22.12
2023-05-13T05:45:26.541Z,22.22
2023-05-13T05:46:26.977Z,22.24
2023-05-13T05:47:27.676Z,22.35
2023-05-13T05:48:27.492Z,22.46
2023-05-13T05:49:27.787Z,22.57
2023-05-13T05:50:28.219Z,22.67
2023-05-13T05:51:28.384Z,22.73
2023-05-13T05:52:28.670Z,22.49
2023-05-13T05:53:29.082Z,22.36
2023-05-13T05:54:29.352Z,22.37
2023-05-13T05:55:29.677Z,22.39
2023-05-13T05:56:29.820Z,22.28
2023-05-13T05:57:30.013Z,22.31
2023-05-13T05:58:30.296Z,22.54
2023-05-13T05:59:30.646Z,22.72
2023-05-13T06:00:31.295Z,22.98
2023-05-13T06:01:31.201Z,23.19
2023-05-13T06:02:31.660Z,23.38
2023-05-13T06:03:32.322Z,23.48
2023-05-13T06:04:32.535Z,23.48
2023-05-13T06:05:32.772Z,23.55
2023-05-13T06:06:32.677Z,23.53
2023-05-13T06:07:33.130Z,23.40
2023-05-13T06:08:55.512Z,23.33
2023-05-13T06:09:33.599Z,23.40
2023-05-13T06:10:33.892Z,23.32
2023-05-13T06:11:34.258Z,23.46
2023-05-13T06:12:34.472Z,23.72
2023-05-13T06:13:34.839Z,23.51
2023-05-13T06:14:34.990Z,23.55
2023-05-13T06:15:35.141Z,23.57
2023-05-13T06:16:35.559Z,23.63
2023-05-13T06:17:35.830Z,23.76
2023-05-13T06:18:36.193Z,23.85
2023-05-13T06:19:36.376Z,23.87
2023-05-13T06:20:36.508Z,23.79
2023-05-13T06:21:36.872Z,23.69
2023-05-13T06:22:37.095Z,23.72
2023-05-13T06:23:37.277Z,23.73
2023-05-13T06:24:37.565Z,23.57
2023-05-13T06:25:37.870Z,23.50
2023-05-13T06:26:38.291Z,23.63
2023-05-13T06:27:38.467Z,23.66
2023-05-13T06:28:38.758Z,23.63
2023-05-13T06:29:39.021Z,23.72
2023-05-13T06:30:39.397Z,23.76
2023-05-13T06:31:39.563Z,23.79
2023-05-13T06:32:47.298Z,23.75
2023-05-13T06:33:41.331Z,23.65
2023-05-13T06:34:40.588Z,23.57
2023-05-13T06:35:40.838Z,23.40
2023-05-13T06:36:41.027Z,23.02
2023-05-13T06:37:41.267Z,22.90
2023-05-13T06:38:41.513Z,22.86
2023-05-13T06:39:41.863Z,22.90
2023-05-13T06:40:42.215Z,22.72
2023-05-13T06:41:42.476Z,22.37
2023-05-13T06:42:42.718Z,22.14
2023-05-13T06:43:43.043Z,22.02
2023-05-13T06:44:43.510Z,22.02
2023-05-13T06:45:43.674Z,21.99
2023-05-13T06:46:43.989Z,21.54
2023-05-13T06:47:44.325Z,21.31
2023-05-13T06:48:44.593Z,21.04
2023-05-13T06:49:45.008Z,20.82
2023-05-13T06:50:45.139Z,20.54
2023-05-13T06:51:45.468Z,20.14
2023-05-13T06:52:45.782Z,19.74
2023-05-13T06:53:46.085Z,19.28
2023-05-13T06:54:46.581Z,19.02
2023-05-13T06:55:46.751Z,18.80
2023-05-13T06:56:47.057Z,18.70
2023-05-13T06:57:47.370Z,18.58
2023-05-13T06:58:47.516Z,18.51
2023-05-13T06:59:47.631Z,18.47
2023-05-13T07:00:47.941Z,18.42
2023-05-13T07:01:48.274Z,18.41
2023-05-13T07:02:48.609Z,18.44
2023-05-13T07:03:49.057Z,18.44
2023-05-13T07:04:49.210Z,18.39
2023-05-13T07:05:49.533Z,18.35
2023-05-13T07:06:49.766Z,18.32
2023-05-13T07:07:50.015Z,18.32
2023-05-13T07:08:50.362Z,18.33
2023-05-13T07:09:50.547Z,18.36
2023-05-13T07:10:50.770Z,18.37
2023-05-13T07:11:51.022Z,18.37
2023-05-13T07:12:52.094Z,18.39
2023-05-13T07:13:51.540Z,18.42
2023-05-13T07:14:51.801Z,18.45
2023-05-13T07:15:52.043Z,18.48
2023-05-13T07:16:52.422Z,18.50
2023-05-13T07:17:52.578Z,18.50
2023-05-13T07:18:52.948Z,18.50
2023-05-13T07:19:53.169Z,18.50
2023-05-13T07:20:53.492Z,18.51
2023-05-13T07:21:54.002Z,18.51
2023-05-13T07:22:54.261Z,18.52
2023-05-13T07:23:54.367Z,18.54
2023-05-13T07:24:54.729Z,18.55
2023-05-13T07:25:55.203Z,18.55
2023-05-13T07:26:55.303Z,18.57
2023-05-13T07:27:55.549Z,18.55
2023-05-13T07:28:55.795Z,18.55
2023-05-13T07:29:56.051Z,18.55
2023-05-13T07:30:56.433Z,18.57
2023-05-13T07:31:56.669Z,18.55
2023-05-13T07:32:57.013Z,18.57
2023-05-13T07:35:42.806Z,18.58
2023-05-13T07:36:15.064Z,18.62
2023-05-13T07:41:07.695Z,18.69
2023-05-13T07:42:08.092Z,18.69
2023-05-13T07:43:07.844Z,18.69
2023-05-13T07:44:08.851Z,18.67
2023-05-13T07:45:08.475Z,18.67
2023-05-13T07:46:09.293Z,18.66
2023-05-13T07:47:09.381Z,18.67
2023-05-13T07:48:09.818Z,18.67
2023-05-13T07:49:09.305Z,18.70
2023-05-13T07:50:09.518Z,18.72
2023-05-13T07:51:10.868Z,18.73
2023-05-13T07:52:10.330Z,18.75
2023-05-13T07:53:10.932Z,18.75
2023-05-13T07:54:12.452Z,18.80
2023-05-13T07:55:11.250Z,18.80
2023-05-13T07:56:12.184Z,18.84
2023-05-13T07:57:12.513Z,18.85
2023-05-13T07:58:12.084Z,18.87
2023-05-13T07:59:12.841Z,18.88
2023-05-13T08:00:12.597Z,18.90
2023-05-13T08:01:12.965Z,18.91
2023-05-13T08:02:13.168Z,18.94
2023-05-13T08:03:13.722Z,18.98
2023-05-13T08:04:13.923Z,18.99
2023-05-13T08:05:14.116Z,19.00
2023-05-13T08:06:14.180Z,18.99
2023-05-13T08:07:14.443Z,18.99
2023-05-13T08:08:14.751Z,18.98
2023-05-13T08:09:15.041Z,19.00
2023-05-13T08:10:15.505Z,18.99
2023-05-13T08:11:15.771Z,18.94
2023-05-13T08:12:15.965Z,18.94
2023-05-13T08:13:16.397Z,18.99
2023-05-13T08:14:16.759Z,19.00
2023-05-13T08:15:16.678Z,19.04
2023-05-13T08:16:16.977Z,19.02
2023-05-13T08:17:17.232Z,19.04
2023-05-13T08:18:17.606Z,19.06
2023-05-13T08:19:17.944Z,19.10
2023-05-13T08:20:18.104Z,19.13
2023-05-13T08:21:18.448Z,19.16
2023-05-13T08:22:18.707Z,19.19
2023-05-13T08:23:18.914Z,19.21
2023-05-13T08:24:19.150Z,19.22
2023-05-13T08:25:19.645Z,19.23
2023-05-13T08:26:19.952Z,19.22
2023-05-13T08:27:19.988Z,19.22
2023-05-13T08:28:20.196Z,19.21
2023-05-13T08:29:20.569Z,19.21
2023-05-13T08:30:20.876Z,19.21
2023-05-13T08:31:21.124Z,19.22
2023-05-13T08:32:21.511Z,19.28
2023-05-13T08:33:21.804Z,19.29
2023-05-13T08:34:21.963Z,19.32
2023-05-13T08:35:22.480Z,19.36
2023-05-13T08:36:22.486Z,19.41
2023-05-13T08:37:22.929Z,19.47
2023-05-13T08:38:23.066Z,19.51
2023-05-13T08:39:23.430Z,19.51
2023-05-13T08:40:23.603Z,19.56
2023-05-13T08:41:23.947Z,19.59
2023-05-13T08:42:24.113Z,19.61
2023-05-13T08:43:24.456Z,19.59
2023-05-13T08:44:24.668Z,19.59
2023-05-13T08:45:24.919Z,19.61
2023-05-13T08:46:25.257Z,19.58
2023-05-13T08:47:25.554Z,19.59
2023-05-13T08:48:25.798Z,19.61
2023-05-13T08:49:26.120Z,19.61
2023-05-13T08:50:26.377Z,19.61
2023-05-13T08:51:26.653Z,19.63
2023-05-13T08:52:27.076Z,19.65
2023-05-13T08:53:27.196Z,19.69
2023-05-13T08:54:27.536Z,19.73
2023-05-13T08:55:27.869Z,19.74
2023-05-13T08:56:28.075Z,19.74
2023-05-13T08:57:28.446Z,19.74
2023-05-13T08:58:28.686Z,19.76
2023-05-13T08:59:28.899Z,19.77
2023-05-13T09:00:29.274Z,19.81
2023-05-13T09:01:29.503Z,19.84
2023-05-13T09:02:29.734Z,19.83
2023-05-13T09:03:30.083Z,19.81
2023-05-13T09:04:30.254Z,19.78
2023-05-13T09:05:30.620Z,19.80
2023-05-13T09:06:30.857Z,19.80
2023-05-13T09:07:31.021Z,19.84
2023-05-13T09:08:31.276Z,19.88
2023-05-13T09:09:31.582Z,19.94
2023-05-13T09:10:31.838Z,19.98
2023-05-13T09:11:32.136Z,19.98
2023-05-13T09:12:32.364Z,19.96
2023-05-13T09:13:32.660Z,19.98
2023-05-13T09:14:32.946Z,20.03
2023-05-13T09:15:33.345Z,20.05
2023-05-13T09:16:33.594Z,20.10
2023-05-13T09:17:33.797Z,20.13
2023-05-13T09:18:34.369Z,20.10
2023-05-13T09:19:34.422Z,20.13
2023-05-13T09:20:34.685Z,20.08
2023-05-13T09:21:34.830Z,20.08
2023-05-13T09:22:35.105Z,20.08
2023-05-13T09:23:35.462Z,20.06
2023-05-13T09:24:35.764Z,20.03
2023-05-13T09:25:36.088Z,20.05
2023-05-13T09:26:36.389Z,20.02
2023-05-13T09:27:36.753Z,20.03
2023-05-13T09:28:36.989Z,20.02
2023-05-13T09:29:37.271Z,20.03
2023-05-13T09:30:37.608Z,20.05
2023-05-13T09:31:37.973Z,20.06
2023-05-13T09:32:38.242Z,20.06
2023-05-13T09:33:38.573Z,20.03
2023-05-13T09:34:38.830Z,20.05
2023-05-13T09:35:39.144Z,20.06
2023-05-13T09:36:39.537Z,20.08
2023-05-13T09:37:39.782Z,20.10
2023-05-13T09:38:40.102Z,20.11
2023-05-13T09:39:40.498Z,20.11
2023-05-13T09:40:40.666Z,20.10
2023-05-13T09:41:41.072Z,20.14
2023-05-13T09:42:41.256Z,20.21
2023-05-13T09:43:41.482Z,20.21
2023-05-13T09:44:41.628Z,20.21
2023-05-13T09:45:41.907Z,20.23
2023-05-13T09:46:42.300Z,20.17
2023-05-13T09:47:42.444Z,20.16
2023-05-13T09:48:42.748Z,20.17
2023-05-13T09:49:43.004Z,20.17
2023-05-13T09:50:43.373Z,20.17
2023-05-13T09:51:43.602Z,20.23
2023-05-13T09:52:43.909Z,20.26
2023-05-13T09:53:44.202Z,20.31
2023-05-13T09:54:44.509Z,20.31
2023-05-13T09:55:44.792Z,20.33
2023-05-13T09:56:45.101Z,20.38
2023-05-13T09:57:45.425Z,20.41
2023-05-13T09:58:45.667Z,20.43
2023-05-13T09:59:45.859Z,20.43
2023-05-13T10:00:46.442Z,20.41
2023-05-13T10:01:46.547Z,20.41
2023-05-13T10:02:46.721Z,20.41
2023-05-13T10:03:46.911Z,20.41
2023-05-13T10:04:47.358Z,20.41
2023-05-13T10:05:47.619Z,20.38
2023-05-13T10:06:47.852Z,20.36
2023-05-13T10:07:47.937Z,20.33
2023-05-13T10:08:48.229Z,20.32
2023-05-13T10:09:48.562Z,20.24
2023-05-13T10:10:48.836Z,20.21
2023-05-13T10:11:49.159Z,20.23
2023-05-13T10:12:49.455Z,20.20
2023-05-13T10:13:49.742Z,20.21
2023-05-13T10:14:50.036Z,20.24
2023-05-13T10:15:50.424Z,20.24
2023-05-13T10:16:50.795Z,20.23
2023-05-13T10:17:50.956Z,20.28
2023-05-13T10:18:51.154Z,20.29
2023-05-13T10:19:51.520Z,20.26
2023-05-13T10:20:51.782Z,20.21
2023-05-13T10:21:59.509Z,20.17
2023-05-13T10:22:52.296Z,20.20
2023-05-13T10:23:52.540Z,20.23
2023-05-13T10:24:52.785Z,20.23
2023-05-13T10:25:53.098Z,20.26
2023-05-13T10:26:53.436Z,20.29
2023-05-13T10:27:53.708Z,20.35
2023-05-13T10:28:53.983Z,20.41
2023-05-13T10:29:54.248Z,20.47
2023-05-13T10:30:54.764Z,20.54
2023-05-13T10:31:54.793Z,20.62
2023-05-13T10:32:55.122Z,20.70
2023-05-13T10:33:55.263Z,20.79
2023-05-13T10:34:55.545Z,20.80
2023-05-13T10:35:55.767Z,20.84
2023-05-13T10:36:56.894Z,20.87
2023-05-13T10:37:56.317Z,20.92
2023-05-13T10:38:56.560Z,20.97
2023-05-13T10:39:56.812Z,21.03
2023-05-13T10:40:57.039Z,21.03
2023-05-13T10:41:58.659Z,21.09
2023-05-13T10:42:57.602Z,21.14
2023-05-13T10:43:57.830Z,21.17
2023-05-13T10:44:58.078Z,21.21
2023-05-13T10:45:58.386Z,21.24
2023-05-13T10:46:58.606Z,21.22
2023-05-13T10:47:58.988Z,21.17
2023-05-13T10:48:59.156Z,21.14
2023-05-13T10:50:00.084Z,21.22
2023-05-13T10:50:59.844Z,21.27
2023-05-13T10:52:00.162Z,21.27
2023-05-13T10:53:00.481Z,21.34
2023-05-13T10:54:00.826Z,21.37
2023-05-13T10:55:01.030Z,21.34
2023-05-13T10:56:01.335Z,21.35
2023-05-13T10:57:02.065Z,21.37
2023-05-13T10:58:02.214Z,21.40
2023-05-13T10:59:02.126Z,21.37
2023-05-13T11:00:02.377Z,21.29
2023-05-13T11:01:02.682Z,21.24
2023-05-13T11:02:03.005Z,21.24
2023-05-13T11:03:03.295Z,21.27
2023-05-13T11:04:03.738Z,21.29
2023-05-13T11:05:03.968Z,21.25
2023-05-13T11:06:04.324Z,21.27
2023-05-13T11:07:04.600Z,21.28
2023-05-13T11:08:04.871Z,21.24
2023-05-13T11:09:05.144Z,21.22
2023-05-13T11:10:05.396Z,21.17
2023-05-13T11:11:05.772Z,21.10
2023-05-13T11:12:05.941Z,21.10
2023-05-13T11:13:06.213Z,21.06
2023-05-13T11:14:08.211Z,21.01
2023-05-13T11:15:06.799Z,20.97
2023-05-13T11:16:07.149Z,20.97
2023-05-13T11:17:07.422Z,20.95
2023-05-13T11:18:07.735Z,20.94
2023-05-13T11:19:08.099Z,20.92
2023-05-13T11:20:08.146Z,20.87
2023-05-13T11:21:08.605Z,20.88
2023-05-13T11:22:08.668Z,20.89
2023-05-13T11:23:08.998Z,20.89
2023-05-13T11:24:09.264Z,20.88
2023-05-13T11:25:09.564Z,20.87
2023-05-13T11:26:12.051Z,20.88
2023-05-13T11:27:10.072Z,20.92
2023-05-13T11:28:10.401Z,20.94
2023-05-13T11:29:10.686Z,20.97
2023-05-13T11:30:11.046Z,21.01
2023-05-13T11:31:11.220Z,21.06
2023-05-13T11:32:11.494Z,21.10
2023-05-13T11:33:11.755Z,21.17
2023-05-13T11:34:12.036Z,21.21
2023-05-13T11:35:12.332Z,21.27
2023-05-13T11:36:12.656Z,21.34
2023-05-13T11:37:12.807Z,21.40
2023-05-13T11:38:13.107Z,21.37
2023-05-13T11:39:13.353Z,21.34
2023-05-13T11:40:13.630Z,21.27
2023-05-13T11:41:13.889Z,21.32
2023-05-13T11:42:14.241Z,21.35
2023-05-13T11:43:14.448Z,21.32
2023-05-13T11:44:14.712Z,21.37
2023-05-13T11:45:15.002Z,21.40
2023-05-13T11:46:15.295Z,21.43
2023-05-13T11:47:15.563Z,21.37
2023-05-13T11:48:15.884Z,21.35
2023-05-13T11:49:16.485Z,21.31
2023-05-13T11:50:16.455Z,21.34
2023-05-13T11:51:16.790Z,21.32
2023-05-13T11:52:17.126Z,21.29
2023-05-13T11:53:17.366Z,21.28
2023-05-13T11:54:17.658Z,21.24
2023-05-13T11:55:17.943Z,21.27
2023-05-13T11:56:18.247Z,21.29
2023-05-13T11:57:18.552Z,21.31
2023-05-13T11:58:18.842Z,21.32
2023-05-13T11:59:19.365Z,21.32
2023-05-13T12:00:19.390Z,21.31
2023-05-13T12:01:19.633Z,21.29
2023-05-13T12:02:20.144Z,21.28
2023-05-13T12:03:20.359Z,21.28
2023-05-13T12:04:20.486Z,21.29
2023-05-13T12:05:20.971Z,21.28
2023-05-13T12:06:21.110Z,21.40
2023-05-13T12:07:21.404Z,21.46
2023-05-13T12:08:23.776Z,21.54
2023-05-13T12:09:21.963Z,21.64
2023-05-13T12:10:22.216Z,21.74
2023-05-13T12:11:22.788Z,21.80
2023-05-13T12:12:23.218Z,21.88
2023-05-13T12:13:23.157Z,21.96
2023-05-13T12:14:23.334Z,21.94
2023-05-13T12:15:23.878Z,21.94
2023-05-13T12:16:27.338Z,21.98
2023-05-13T12:17:24.511Z,21.96
2023-05-13T12:18:24.629Z,21.88
2023-05-13T12:19:25.133Z,21.83
2023-05-13T12:20:25.578Z,21.75
2023-05-13T12:21:25.442Z,21.69
2023-05-13T12:22:25.592Z,21.65
2023-05-13T12:23:25.950Z,21.62
2023-05-13T12:24:26.153Z,21.61
2023-05-13T12:25:26.488Z,21.53
2023-05-13T12:26:26.906Z,21.53
2023-05-13T12:27:27.054Z,21.58
2023-05-13T12:28:27.390Z,21.62
2023-05-13T12:29:27.810Z,21.65
2023-05-13T12:30:28.094Z,21.69
2023-05-13T12:31:28.342Z,21.75
2023-05-13T12:32:28.562Z,21.84
2023-05-13T12:33:28.775Z,21.92
2023-05-13T12:34:28.889Z,21.99
2023-05-13T12:35:29.897Z,22.06
2023-05-13T12:36:29.457Z,22.15
2023-05-13T12:37:29.690Z,22.18
2023-05-13T12:38:30.028Z,22.21
2023-05-13T12:39:30.349Z,22.25
2023-05-13T12:40:30.529Z,22.27
2023-05-13T12:41:30.807Z,22.28
2023-05-13T12:42:31.126Z,22.25
2023-05-13T12:43:31.283Z,22.27
2023-05-13T12:44:31.592Z,22.22
2023-05-13T12:45:31.872Z,22.18
2023-05-13T12:46:32.169Z,22.15
2023-05-13T12:47:32.447Z,22.15
2023-05-13T12:48:32.686Z,22.18
2023-05-13T12:49:32.986Z,22.18
2023-05-13T12:50:33.274Z,22.14
2023-05-13T12:51:33.555Z,22.10
2023-05-13T12:52:33.784Z,22.05
2023-05-13T12:53:34.076Z,22.06
2023-05-13T12:54:34.364Z,22.12
2023-05-13T12:55:34.629Z,22.12
2023-05-13T12:56:34.882Z,22.06
2023-05-13T12:57:35.141Z,21.96
2023-05-13T12:58:35.445Z,21.90
2023-05-13T12:59:35.744Z,21.88
2023-05-13T13:00:36.001Z,21.86
2023-05-13T13:01:36.231Z,21.86
2023-05-13T13:02:36.593Z,21.80